Detroit, Michigan
Current Conditions -  °F | °C
As of 2:00 PM on Monday 22 Dec 2014 (Local Time) from CYQG Reporting Station
Overcast Overcast  
Wind Chill: 30°   Ceiling: 23000
Heat Index: 37°   Visibility: 15mi
Dew Point: 32°   Wind: 10mph
Humidity: 81%   Direction: 100°E
Pressure: 29.99"   Gusts: NA
Location:  42.33°N, 83.05°W
Report Text: CYQG 221900Z 10009KT 15SM FEW040 OVC230 03/M00 A2999 RMK CF1CI8 CF TR SLP163
Loading
Personal Weather Stations






























Interactive Weather Map New forecast layout! Learn more

10-Day Weather Forecast

Advertisements
Track Severe Weather on mobile